Time;durP1;ratioP1;P1;durP2;ratioP2;P2;SDS_P1;SDS_P2;PMS_P1;PMS_P2;Temp;Humidity;BMP_temperature;BMP_pressure;BME280_temperature;BME280_humidity;BME280_pressure;Samples;Min_cycle;Max_cycle;Signal;HPM_P1;HPM_P2
2022/09/01 00:00:52;;;;;;;2.27;1.50;;;18.00;99.90;;;;;;5077091;28;20478;-65
2022/09/01 00:03:22;;;;;;;3.70;1.40;;;18.00;99.90;;;;;;5077392;28;20821;-61
2022/09/01 00:05:49;;;;;;;2.00;1.13;;;18.00;99.90;;;;;;5076636;28;20435;-61
2022/09/01 00:08:17;;;;;;;2.60;1.57;;;18.00;99.90;;;;;;5077118;28;20438;-61
2022/09/01 00:10:44;;;;;;;1.70;1.30;;;18.00;99.90;;;;;;5077052;28;20453;-61
2022/09/01 00:13:10;;;;;;;2.40;1.27;;;18.00;99.90;;;;;;5077228;28;20446;-61
2022/09/01 00:15:37;;;;;;;2.03;1.27;;;18.00;99.90;;;;;;5077028;28;20469;-60
2022/09/01 00:18:06;;;;;;;1.40;0.90;;;18.00;99.90;;;;;;5076677;28;20484;-62
2022/09/01 00:20:33;;;;;;;2.80;1.30;;;17.90;99.90;;;;;;5078406;28;20521;-63
2022/09/01 00:23:00;;;;;;;1.60;1.20;;;17.90;99.90;;;;;;5078865;28;20438;-63
2022/09/01 00:25:28;;;;;;;2.07;1.40;;;17.90;99.90;;;;;;5077380;28;20430;-61
2022/09/01 00:27:59;;;;;;;2.27;1.10;;;17.90;99.90;;;;;;5076906;28;20755;-60
2022/09/01 00:30:26;;;;;;;2.80;1.30;;;17.90;99.90;;;;;;5076828;28;20481;-61
2022/09/01 00:32:53;;;;;;;1.70;1.17;;;17.90;99.90;;;;;;5076545;28;20455;-61
2022/09/01 00:35:22;;;;;;;1.33;1.10;;;17.90;99.90;;;;;;5076645;28;20513;-61
2022/09/01 00:37:48;;;;;;;1.40;1.00;;;17.90;99.90;;;;;;5076346;28;20485;-63
2022/09/01 00:40:19;;;;;;;2.63;1.13;;;17.90;99.90;;;;;;5076927;28;20484;-57
2022/09/01 00:42:47;;;;;;;2.67;0.87;;;17.90;99.90;;;;;;5076456;28;20492;-62
2022/09/01 00:45:15;;;;;;;2.13;1.07;;;17.90;99.90;;;;;;5076382;28;20508;-62
2022/09/01 00:47:42;;;;;;;1.20;0.90;;;17.90;99.90;;;;;;5076280;28;20454;-60
2022/09/01 00:50:11;;;;;;;2.07;1.43;;;17.80;99.90;;;;;;5076076;28;20455;-62
2022/09/01 00:52:44;;;;;;;1.77;1.00;;;17.80;99.90;;;;;;5075912;28;20565;-62
2022/09/01 00:55:17;;;;;;;4.00;1.43;;;17.80;99.90;;;;;;5079155;28;20476;-63
2022/09/01 00:57:45;;;;;;;2.27;1.53;;;17.80;99.90;;;;;;5096165;28;20489;-65
2022/09/01 01:00:15;;;;;;;1.30;0.87;;;17.80;99.90;;;;;;5096368;28;20549;-49
2022/09/01 01:02:43;;;;;;;1.50;1.10;;;17.80;99.90;;;;;;5077371;28;20535;-58
2022/09/01 01:05:12;;;;;;;3.70;2.10;;;17.80;99.90;;;;;;5075878;28;20453;-59
2022/09/01 01:07:43;;;;;;;1.83;1.13;;;17.80;99.90;;;;;;5077283;28;20557;-63
2022/09/01 01:10:13;;;;;;;2.63;1.33;;;17.70;99.90;;;;;;5083441;28;20508;-61
2022/09/01 01:12:41;;;;;;;1.30;0.90;;;17.70;99.90;;;;;;5096722;28;20430;-61
2022/09/01 01:15:09;;;;;;;2.30;1.37;;;17.70;99.90;;;;;;5096990;28;20514;-61
2022/09/01 01:17:36;;;;;;;2.10;1.40;;;17.70;99.90;;;;;;5096744;28;20457;-60
2022/09/01 01:23:04;;;;;;;1.27;0.80;;;17.60;99.90;;;;;;5096928;28;20781;-65
2022/09/01 01:25:35;;;;;;;2.00;1.30;;;17.60;99.90;;;;;;5096811;28;20469;-61
2022/09/01 01:28:08;;;;;;;2.10;1.23;;;17.50;99.90;;;;;;5081430;28;20469;-53
2022/09/01 01:30:36;;;;;;;1.83;1.30;;;17.50;99.90;;;;;;5076042;28;20457;-59
2022/09/01 01:33:06;;;;;;;1.73;1.10;;;17.50;99.90;;;;;;5076224;28;20542;-59
2022/09/01 01:35:34;;;;;;;2.90;1.33;;;17.50;99.90;;;;;;5076875;28;20569;-62
2022/09/01 01:38:06;;;;;;;1.70;1.30;;;17.50;99.90;;;;;;5077529;28;20486;-61
2022/09/01 01:40:36;;;;;;;1.63;1.10;;;17.50;99.90;;;;;;5077622;28;20434;-58
2022/09/01 01:43:03;;;;;;;2.60;0.90;;;17.50;99.90;;;;;;5077087;28;20456;-61
2022/09/01 01:45:31;;;;;;;1.73;1.00;;;17.60;99.90;;;;;;5076335;28;20442;-62
2022/09/01 01:47:59;;;;;;;1.70;1.37;;;17.60;99.90;;;;;;5075716;28;20568;-61
2022/09/01 01:50:33;;;;;;;9.53;1.00;;;17.60;99.90;;;;;;5075928;28;20450;-61
2022/09/01 01:53:01;;;;;;;2.20;1.00;;;17.50;99.90;;;;;;5075858;28;20442;-59
2022/09/01 01:55:30;;;;;;;1.50;0.80;;;17.50;99.90;;;;;;5075386;28;20493;-60
2022/09/01 01:57:59;;;;;;;2.50;0.80;;;17.40;99.90;;;;;;5075831;28;20500;-62
2022/09/01 02:00:28;;;;;;;1.77;1.13;;;17.40;99.90;;;;;;5075452;28;20466;-61
2022/09/01 02:02:55;;;;;;;3.03;1.17;;;17.30;99.90;;;;;;5076180;28;20438;-61
2022/09/01 02:05:26;;;;;;;1.53;1.30;;;17.30;99.90;;;;;;5075712;28;20496;-60
2022/09/01 02:07:55;;;;;;;3.13;1.37;;;17.30;99.90;;;;;;5075898;28;20471;-61
2022/09/01 02:10:24;;;;;;;1.50;1.27;;;17.30;99.90;;;;;;5075553;28;20463;-58
2022/09/01 02:12:51;;;;;;;1.97;1.37;;;17.30;99.90;;;;;;5095494;28;20469;-62
2022/09/01 02:15:20;;;;;;;3.20;1.10;;;17.30;99.90;;;;;;5091015;28;20476;-60
2022/09/01 02:17:47;;;;;;;2.60;1.23;;;17.30;99.90;;;;;;5075953;28;20505;-60
2022/09/01 02:20:15;;;;;;;1.50;1.17;;;17.20;99.90;;;;;;5075077;28;20527;-61
2022/09/01 02:22:43;;;;;;;1.73;1.13;;;17.20;99.90;;;;;;5075367;28;20476;-64
2022/09/01 02:25:11;;;;;;;2.60;1.00;;;17.10;99.90;;;;;;5075278;28;20459;-63
2022/09/01 02:27:41;;;;;;;1.80;1.27;;;17.10;99.90;;;;;;5094094;28;20451;-61
2022/09/01 02:30:10;;;;;;;1.37;1.10;;;17.10;99.90;;;;;;5095704;28;20449;-61
2022/09/01 02:32:40;;;;;;;1.77;1.17;;;17.20;99.90;;;;;;5095612;28;20465;-63
2022/09/01 02:35:08;;;;;;;2.40;1.30;;;17.10;99.90;;;;;;5095978;28;20533;-61
2022/09/01 02:37:38;;;;;;;4.83;1.23;;;17.10;99.90;;;;;;5095075;28;20459;-57
2022/09/01 02:40:08;;;;;;;1.20;1.03;;;17.10;99.90;;;;;;5095295;28;20544;-53
2022/09/01 02:42:39;;;;;;;1.10;0.90;;;17.00;99.90;;;;;;5078687;28;20458;-62
2022/09/01 02:45:14;;;;;;;3.80;1.20;;;17.00;99.90;;;;;;5095638;28;20466;-58
2022/09/01 02:47:47;;;;;;;1.20;0.90;;;17.00;99.90;;;;;;5095595;28;20456;-63
2022/09/01 02:50:15;;;;;;;1.80;1.00;;;16.90;99.90;;;;;;5095708;28;20464;-61
2022/09/01 02:52:43;;;;;;;1.30;1.00;;;16.90;99.90;;;;;;5095711;28;20426;-57
2022/09/01 02:55:11;;;;;;;1.00;0.80;;;16.90;99.90;;;;;;5095091;28;20485;-57
2022/09/01 02:57:38;;;;;;;2.60;1.00;;;16.80;99.90;;;;;;5096441;28;20992;-55
2022/09/01 03:00:19;;;;;;;2.53;1.03;;;16.80;99.90;;;;;;5095750;28;20464;-61
2022/09/01 03:02:50;;;;;;;4.40;2.07;;;16.70;99.90;;;;;;5097160;28;20430;-55
2022/09/01 03:05:24;;;;;;;3.60;1.10;;;16.70;99.90;;;;;;5096966;28;20445;-59
2022/09/01 03:07:55;;;;;;;1.50;1.17;;;16.60;99.90;;;;;;5097647;28;20428;-61
2022/09/01 03:10:25;;;;;;;4.10;1.20;;;16.60;99.90;;;;;;5097565;28;20530;-62
2022/09/01 03:12:53;;;;;;;1.83;1.10;;;16.50;99.90;;;;;;5097152;28;20452;-58
2022/09/01 03:15:22;;;;;;;1.50;1.10;;;16.50;99.90;;;;;;5096533;28;20487;-60
2022/09/01 03:17:50;;;;;;;2.87;1.33;;;16.40;99.90;;;;;;5097245;28;20522;-61
2022/09/01 03:20:20;;;;;;;1.50;1.00;;;16.40;99.90;;;;;;5096907;28;20450;-60
2022/09/01 03:22:48;;;;;;;2.43;1.20;;;16.30;99.90;;;;;;5096754;28;20504;-56
2022/09/01 03:25:15;;;;;;;1.40;0.90;;;16.20;99.90;;;;;;5096087;28;20503;-61
2022/09/01 03:27:42;;;;;;;1.57;1.17;;;16.20;99.90;;;;;;5098197;28;20488;-61
2022/09/01 03:30:13;;;;;;;2.30;1.20;;;16.10;99.90;;;;;;5097487;28;20532;-57
2022/09/01 03:32:40;;;;;;;1.53;1.20;;;16.10;99.90;;;;;;5076624;28;20461;-61
2022/09/01 03:35:09;;;;;;;1.23;1.00;;;16.00;99.90;;;;;;5077106;28;20509;-62
2022/09/01 03:37:36;;;;;;;2.90;1.27;;;16.00;99.90;;;;;;5076615;28;20484;-57
2022/09/01 03:40:04;;;;;;;1.40;1.00;;;16.00;99.90;;;;;;5076982;28;20547;-58
2022/09/01 03:42:32;;;;;;;1.10;0.90;;;16.00;99.90;;;;;;5076884;28;20446;-61
2022/09/01 03:44:58;;;;;;;1.70;1.10;;;15.90;99.90;;;;;;5078188;28;20457;-56
2022/09/01 03:47:26;;;;;;;3.67;2.90;;;15.90;99.90;;;;;;5078839;28;20548;-59
2022/09/01 03:49:53;;;;;;;2.07;1.20;;;15.80;99.90;;;;;;5078564;28;20513;-62
2022/09/01 03:52:27;;;;;;;1.87;1.07;;;15.80;99.90;;;;;;5079050;28;20502;-55
2022/09/01 03:54:54;;;;;;;1.80;1.10;;;15.70;99.90;;;;;;5079211;28;20965;-61
2022/09/01 03:57:22;;;;;;;1.67;1.00;;;15.70;99.90;;;;;;5079287;28;20453;-57
2022/09/01 03:59:50;;;;;;;2.13;1.70;;;15.70;99.90;;;;;;5100119;28;20446;-62
2022/09/01 04:02:17;;;;;;;2.10;1.30;;;15.60;99.90;;;;;;5087795;28;20562;-61
2022/09/01 04:04:44;;;;;;;2.47;1.57;;;15.60;99.90;;;;;;5078686;28;20471;-63
2022/09/01 04:07:11;;;;;;;3.00;1.53;;;15.60;99.90;;;;;;5077451;28;20883;-60
2022/09/01 04:09:39;;;;;;;5.23;1.60;;;15.60;99.90;;;;;;5078068;28;20446;-59
2022/09/01 04:12:08;;;;;;;1.93;1.30;;;15.50;99.90;;;;;;5077864;28;20453;-61
2022/09/01 04:14:35;;;;;;;1.50;1.00;;;15.50;99.90;;;;;;5077973;28;20958;-61
2022/09/01 04:19:47;;;;;;;3.93;1.67;;;15.40;99.90;;;;;;5077823;28;20936;-63
2022/09/01 04:22:16;;;;;;;1.60;1.07;;;15.40;99.90;;;;;;5077879;28;20474;-54
2022/09/01 04:24:45;;;;;;;4.40;1.20;;;15.40;99.90;;;;;;5078305;28;20864;-57
2022/09/01 04:27:13;;;;;;;2.27;1.33;;;15.40;99.90;;;;;;5077461;28;20469;-62
2022/09/01 04:29:40;;;;;;;3.17;1.87;;;15.30;99.90;;;;;;5078393;28;20533;-61
2022/09/01 04:32:11;;;;;;;2.33;1.60;;;15.30;99.90;;;;;;5082238;28;20532;-60
2022/09/01 04:34:40;;;;;;;2.87;1.70;;;15.30;99.90;;;;;;5097424;28;20572;-62
2022/09/01 04:37:11;;;;;;;2.00;1.50;;;15.30;99.90;;;;;;5098709;28;20457;-61
2022/09/01 04:39:39;;;;;;;1.73;1.23;;;15.30;99.90;;;;;;5098788;28;20442;-61
2022/09/01 04:42:09;;;;;;;1.87;1.43;;;15.30;99.90;;;;;;5098371;28;20466;-61
2022/09/01 04:44:36;;;;;;;3.73;1.20;;;15.30;99.90;;;;;;5098097;28;20771;-63
2022/09/01 04:47:09;;;;;;;1.43;1.30;;;15.30;99.90;;;;;;5095824;28;20476;-64
2022/09/01 04:49:36;;;;;;;5.47;1.60;;;15.30;99.90;;;;;;5097611;28;20434;-58
2022/09/01 04:52:04;;;;;;;2.30;1.87;;;15.30;99.90;;;;;;5095718;28;20463;-58
2022/09/01 04:54:32;;;;;;;1.70;1.50;;;15.30;99.90;;;;;;5076853;28;20537;-63
2022/09/01 04:56:59;;;;;;;6.83;1.50;;;15.30;99.90;;;;;;5075311;28;20504;-59
2022/09/01 04:59:29;;;;;;;2.27;1.57;;;15.30;99.90;;;;;;5074020;28;20982;-59
2022/09/01 05:01:58;;;;;;;2.80;1.40;;;15.30;99.90;;;;;;5074345;28;20457;-61
2022/09/01 05:04:31;;;;;;;2.80;1.80;;;15.30;99.90;;;;;;5075310;28;20451;-56
2022/09/01 05:06:59;;;;;;;4.50;2.00;;;15.30;99.90;;;;;;5074148;28;20431;-61
2022/09/01 05:09:28;;;;;;;2.70;1.60;;;15.30;99.90;;;;;;5080469;28;20450;-60
2022/09/01 05:11:57;;;;;;;3.50;1.70;;;15.30;99.90;;;;;;5079050;28;20474;-64
2022/09/01 05:14:24;;;;;;;1.87;1.57;;;15.40;99.90;;;;;;5074960;28;20910;-59
2022/09/01 05:16:57;;;;;;;2.63;1.20;;;15.40;99.90;;;;;;5076264;28;20482;-60
2022/09/01 05:19:27;;;;;;;3.00;1.47;;;15.40;99.90;;;;;;5074839;28;20523;-60
2022/09/01 05:21:57;;;;;;;1.30;1.10;;;15.40;99.90;;;;;;5089783;28;20464;-56
2022/09/01 05:24:30;;;;;;;2.53;1.43;;;15.40;99.90;;;;;;5091488;28;20466;-62
2022/09/01 05:26:59;;;;;;;4.13;1.40;;;15.50;99.90;;;;;;5073986;28;20450;-58
2022/09/01 05:29:26;;;;;;;2.10;1.63;;;15.50;99.90;;;;;;5079012;28;20469;-58
2022/09/01 05:31:55;;;;;;;2.43;1.60;;;15.50;99.90;;;;;;5076681;28;20503;-63
2022/09/01 05:34:26;;;;;;;3.20;1.73;;;15.50;99.90;;;;;;5077126;28;20533;-59
2022/09/01 05:36:54;;;;;;;1.87;1.10;;;15.50;99.90;;;;;;5075931;28;20496;-59
2022/09/01 05:39:21;;;;;;;13.07;1.70;;;15.50;99.90;;;;;;5076484;28;20431;-61
2022/09/01 05:41:48;;;;;;;2.07;1.20;;;15.50;99.90;;;;;;5075936;28;20512;-63
2022/09/01 05:44:17;;;;;;;3.57;1.50;;;15.50;99.90;;;;;;5074982;28;20462;-62
2022/09/01 05:46:46;;;;;;;3.30;1.70;;;15.60;99.90;;;;;;5075202;28;20549;-63
2022/09/01 05:49:15;;;;;;;4.80;1.60;;;15.60;99.90;;;;;;5075125;28;20872;-64
2022/09/01 05:51:45;;;;;;;5.63;3.07;;;15.60;99.90;;;;;;5074388;28;20458;-60
2022/09/01 05:54:13;;;;;;;2.37;2.03;;;15.60;99.90;;;;;;5074725;28;20485;-63
2022/09/01 05:56:41;;;;;;;4.07;1.90;;;15.70;99.90;;;;;;5074396;28;20481;-63
2022/09/01 05:59:10;;;;;;;5.57;1.70;;;15.70;99.90;;;;;;5075641;28;20792;-58
2022/09/01 06:01:39;;;;;;;2.60;1.47;;;15.70;99.90;;;;;;5075017;28;20435;-58
2022/09/01 06:04:08;;;;;;;2.83;1.70;;;15.70;99.90;;;;;;5075019;28;20541;-61
2022/09/01 06:06:39;;;;;;;2.07;1.87;;;15.70;99.90;;;;;;5075567;28;20470;-62
2022/09/01 06:09:09;;;;;;;2.40;1.70;;;15.80;99.90;;;;;;5074789;28;20518;-60
2022/09/01 06:11:36;;;;;;;3.80;1.80;;;15.80;99.90;;;;;;5074622;28;20470;-53
2022/09/01 06:14:04;;;;;;;2.07;1.43;;;15.90;99.90;;;;;;5074547;28;20426;-57
2022/09/01 06:16:32;;;;;;;2.40;1.67;;;15.90;99.90;;;;;;5095138;28;20581;-61
2022/09/01 06:18:59;;;;;;;1.30;1.07;;;16.00;99.90;;;;;;5098782;28;20479;-60
2022/09/01 06:21:27;;;;;;;1.80;1.30;;;16.10;99.90;;;;;;5098655;28;20439;-61
2022/09/01 06:24:10;;;;;;;2.40;1.50;;;16.10;99.90;;;;;;5098757;28;20990;-63
2022/09/01 06:26:39;;;;;;;1.70;1.27;;;16.20;99.90;;;;;;5098425;28;20795;-60
2022/09/01 06:29:09;;;;;;;4.40;1.37;;;16.20;99.90;;;;;;5102333;28;20560;-61
2022/09/01 06:31:38;;;;;;;1.87;1.40;;;16.20;99.90;;;;;;5096756;28;20449;-64
2022/09/01 06:34:07;;;;;;;3.27;1.80;;;16.30;99.90;;;;;;5096532;28;20480;-55
2022/09/01 06:36:39;;;;;;;4.70;1.33;;;16.40;99.90;;;;;;5099779;28;20469;-61
2022/09/01 06:39:08;;;;;;;1.97;1.47;;;16.50;99.90;;;;;;5103011;28;20463;-57
2022/09/01 06:41:36;;;;;;;2.43;1.40;;;16.50;99.90;;;;;;5107677;28;20968;-58
2022/09/01 06:44:03;;;;;;;4.10;2.10;;;16.60;99.90;;;;;;5105444;28;20449;-61
2022/09/01 06:46:30;;;;;;;4.17;2.03;;;16.70;99.90;;;;;;5111866;28;20526;-61
2022/09/01 06:48:58;;;;;;;2.20;1.70;;;16.70;99.90;;;;;;5095941;28;20453;-61
2022/09/01 06:51:27;;;;;;;3.20;2.40;;;16.80;99.90;;;;;;5099915;28;20525;-62
2022/09/01 06:53:58;;;;;;;2.53;1.93;;;16.90;99.90;;;;;;5091574;28;20472;-61
2022/09/01 06:56:28;;;;;;;5.37;1.80;;;16.90;99.90;;;;;;5096193;28;20492;-60
2022/09/01 06:58:56;;;;;;;1.87;1.50;;;17.00;99.90;;;;;;5100362;28;20445;-61
2022/09/01 07:01:24;;;;;;;4.80;2.00;;;17.10;99.90;;;;;;5098386;28;20517;-61
2022/09/01 07:03:53;;;;;;;7.37;2.03;;;17.10;99.90;;;;;;5093288;28;20434;-64
2022/09/01 07:06:23;;;;;;;2.00;1.70;;;17.20;99.90;;;;;;5086778;28;20546;-63
2022/09/01 07:08:53;;;;;;;1.40;1.20;;;17.30;99.90;;;;;;5094682;28;20437;-62
2022/09/01 07:11:24;;;;;;;2.93;1.53;;;17.30;99.90;;;;;;5086203;28;20474;-62
2022/09/01 07:13:54;;;;;;;2.43;1.30;;;17.40;99.90;;;;;;5099504;28;20474;-62
2022/09/01 07:16:24;;;;;;;2.40;1.50;;;17.50;99.90;;;;;;5105538;28;20487;-59
2022/09/01 07:18:55;;;;;;;4.80;1.70;;;17.50;99.90;;;;;;5111318;28;20464;-57
2022/09/01 07:21:27;;;;;;;1.80;1.30;;;17.50;99.90;;;;;;5114271;28;20472;-61
2022/09/01 07:23:54;;;;;;;2.60;1.37;;;17.60;99.90;;;;;;5112214;28;20508;-58
2022/09/01 07:26:21;;;;;;;3.43;1.53;;;17.70;99.90;;;;;;5113635;28;20545;-61
2022/09/01 07:28:50;;;;;;;3.37;1.30;;;17.80;99.90;;;;;;5106200;28;20453;-63
2022/09/01 07:31:24;;;;;;;2.70;1.47;;;17.80;99.90;;;;;;5091391;28;20966;-59
2022/09/01 07:33:53;;;;;;;2.70;1.37;;;17.90;99.90;;;;;;5089595;28;20445;-63
2022/09/01 07:36:20;;;;;;;2.00;1.40;;;17.90;99.90;;;;;;5102512;28;20480;-62
2022/09/01 07:38:52;;;;;;;1.50;1.20;;;18.00;99.90;;;;;;5101820;28;20532;-59
2022/09/01 07:41:20;;;;;;;2.03;1.10;;;18.10;99.90;;;;;;5088826;28;20560;-63
2022/09/01 07:43:48;;;;;;;1.30;1.10;;;18.20;99.90;;;;;;5093074;28;20464;-59
2022/09/01 07:46:15;;;;;;;2.13;1.60;;;18.20;99.90;;;;;;5100469;28;20499;-58
2022/09/01 07:48:44;;;;;;;1.43;1.27;;;18.30;99.90;;;;;;5105477;28;20472;-60
2022/09/01 07:51:12;;;;;;;1.37;1.00;;;18.30;99.90;;;;;;5099760;28;20497;-63
2022/09/01 07:53:40;;;;;;;3.03;1.27;;;18.40;99.90;;;;;;5104450;28;20430;-62
2022/09/01 07:56:08;;;;;;;1.70;1.30;;;18.50;99.90;;;;;;5099115;28;20976;-61
2022/09/01 07:58:38;;;;;;;1.70;1.10;;;18.60;99.90;;;;;;5100980;28;20447;-63
2022/09/01 08:01:07;;;;;;;1.67;1.07;;;18.70;99.90;;;;;;5090032;28;20451;-62
2022/09/01 08:03:35;;;;;;;1.37;1.10;;;18.80;99.90;;;;;;5100114;28;20499;-62
2022/09/01 08:06:06;;;;;;;2.70;1.50;;;19.10;99.90;;;;;;5098571;28;20437;-57
2022/09/01 08:08:34;;;;;;;2.23;1.30;;;20.30;99.90;;;;;;5091668;28;20511;-61
2022/09/01 08:11:01;;;;;;;3.20;1.30;;;22.40;99.90;;;;;;5097559;28;20494;-62
2022/09/01 08:13:28;;;;;;;2.47;1.80;;;24.80;99.90;;;;;;5084439;28;20497;-62
2022/09/01 08:15:55;;;;;;;4.37;1.60;;;27.20;94.10;;;;;;5099134;28;20491;-61
2022/09/01 08:18:22;;;;;;;1.60;1.10;;;29.30;77.80;;;;;;5099150;28;20448;-62
2022/09/01 08:20:49;;;;;;;1.20;1.00;;;31.10;66.80;;;;;;5095054;28;20442;-56
2022/09/01 08:23:19;;;;;;;1.57;1.00;;;32.30;57.20;;;;;;5086134;28;20541;-63
2022/09/01 08:25:47;;;;;;;1.23;1.00;;;33.10;54.90;;;;;;5084396;28;20450;-57
2022/09/01 08:28:15;;;;;;;2.00;1.80;;;33.40;50.90;;;;;;5100688;28;20452;-54
2022/09/01 08:30:47;;;;;;;1.70;1.03;;;33.90;50.30;;;;;;5100499;28;20481;-54
2022/09/01 08:33:15;;;;;;;1.70;1.20;;;34.30;48.10;;;;;;5099840;28;20478;-56
2022/09/01 08:35:48;;;;;;;1.30;1.10;;;34.80;46.60;;;;;;5079335;28;20474;-56
2022/09/01 08:38:17;;;;;;;2.30;1.40;;;35.20;45.40;;;;;;5086798;28;20460;-54
2022/09/01 08:40:53;;;;;;;2.23;1.93;;;35.50;44.00;;;;;;5098575;28;20472;-49
2022/09/01 08:43:28;;;;;;;2.17;1.30;;;35.20;44.20;;;;;;5098245;28;20441;-55
2022/09/01 08:45:57;;;;;;;1.50;1.40;;;35.20;43.20;;;;;;5098478;28;20454;-52
2022/09/01 08:48:31;;;;;;;1.30;1.10;;;35.00;43.30;;;;;;5097120;28;20452;-50
2022/09/01 08:51:06;;;;;;;1.17;0.90;;;35.20;42.80;;;;;;5094229;28;20789;-53
2022/09/01 08:53:41;;;;;;;3.90;1.27;;;35.30;42.00;;;;;;5098087;28;20465;-47
2022/09/01 08:56:10;;;;;;;2.07;1.13;;;35.20;42.10;;;;;;5097901;28;20457;-55
2022/09/01 08:58:37;;;;;;;1.73;1.20;;;34.90;42.70;;;;;;5098587;28;20508;-51
2022/09/01 09:01:15;;;;;;;1.50;1.03;;;34.70;42.60;;;;;;5101053;28;20449;-51
2022/09/01 09:03:51;;;;;;;1.40;1.00;;;34.70;42.80;;;;;;5086141;28;20472;-50
2022/09/01 09:06:24;;;;;;;1.90;1.10;;;34.90;42.40;;;;;;5101092;28;20424;-54
2022/09/01 09:08:55;;;;;;;2.60;1.50;;;34.90;42.10;;;;;;5101074;28;20461;-52
2022/09/01 09:11:57;;;;;;;5.17;1.53;;;34.90;41.90;;;;;;5100857;28;20437;-52
2022/09/01 09:14:45;;;;;;;1.90;1.40;;;34.90;41.70;;;;;;5097918;28;20897;-50
2022/09/01 09:17:15;;;;;;;3.33;1.67;;;34.60;41.50;;;;;;5092530;28;20462;-55
2022/09/01 09:19:44;;;;;;;1.80;1.20;;;34.30;41.70;;;;;;5084401;28;20818;-52
2022/09/01 09:22:13;;;;;;;2.40;1.90;;;34.20;41.40;;;;;;5100328;28;20438;-54
2022/09/01 09:24:48;;;;;;;1.90;1.23;;;34.30;41.80;;;;;;5100147;28;20441;-52
2022/09/01 09:27:20;;;;;;;1.70;1.10;;;34.20;42.00;;;;;;5090762;28;20498;-52
2022/09/01 09:29:51;;;;;;;1.40;1.30;;;34.00;42.40;;;;;;5100037;28;20488;-53
2022/09/01 09:32:18;;;;;;;1.50;1.07;;;34.00;43.00;;;;;;5103196;28;20469;-54
2022/09/01 09:34:51;;;;;;;1.70;1.20;;;34.20;42.20;;;;;;5103407;28;20508;-50
2022/09/01 09:37:27;;;;;;;4.33;2.27;;;34.20;42.70;;;;;;5102725;28;20480;-50
2022/09/01 09:40:14;;;;;;;2.53;1.60;;;34.20;42.20;;;;;;5100901;28;20467;-46
2022/09/01 09:42:43;;;;;;;2.70;1.30;;;33.80;42.20;;;;;;5093531;28;20476;-50
2022/09/01 09:45:24;;;;;;;1.43;1.00;;;33.80;42.70;;;;;;5096439;28;20472;-50
2022/09/01 09:47:52;;;;;;;2.20;1.27;;;33.90;42.70;;;;;;5085584;28;20921;-52
2022/09/01 09:50:24;;;;;;;2.23;1.17;;;33.80;42.60;;;;;;5100401;28;20504;-55
2022/09/01 09:52:54;;;;;;;1.60;1.40;;;32.80;43.70;;;;;;5093315;28;20448;-45
2022/09/01 09:55:26;;;;;;;5.00;3.60;;;31.40;45.40;;;;;;5104140;28;20545;-53
2022/09/01 09:57:58;;;;;;;3.40;1.60;;;30.30;47.30;;;;;;5102370;28;20470;-51
2022/09/01 10:00:27;;;;;;;1.37;1.17;;;30.40;47.90;;;;;;5101433;28;20491;-51
2022/09/01 10:02:57;;;;;;;3.20;1.07;;;30.90;46.90;;;;;;5101366;28;20476;-52
2022/09/01 10:05:28;;;;;;;2.23;1.23;;;30.60;46.60;;;;;;5102754;28;20477;-53
2022/09/01 10:07:57;;;;;;;1.10;0.97;;;30.20;47.80;;;;;;5105530;28;20430;-51
2022/09/01 10:10:36;;;;;;;1.20;0.90;;;30.00;47.60;;;;;;5100174;28;20473;-51
2022/09/01 10:13:03;;;;;;;1.83;1.10;;;29.50;47.80;;;;;;5101990;28;20494;-54
2022/09/01 10:15:33;;;;;;;1.50;1.23;;;28.50;48.80;;;;;;5101403;28;20464;-51
2022/09/01 10:18:07;;;;;;;2.40;1.40;;;28.00;50.50;;;;;;5105329;28;20508;-47
2022/09/01 10:20:37;;;;;;;2.40;1.27;;;27.40;51.10;;;;;;5105634;28;20434;-53
2022/09/01 10:23:04;;;;;;;1.20;1.10;;;26.70;53.20;;;;;;5106283;28;20441;-54
2022/09/01 10:25:34;;;;;;;2.80;1.20;;;26.20;53.60;;;;;;5107289;28;20453;-55
2022/09/01 10:28:09;;;;;;;2.27;1.30;;;26.50;53.90;;;;;;5107406;28;20492;-53
2022/09/01 10:30:41;;;;;;;1.90;1.43;;;26.40;53.70;;;;;;5101706;28;20455;-54
2022/09/01 10:33:09;;;;;;;2.50;1.37;;;26.00;54.30;;;;;;5106916;28;20473;-50
2022/09/01 10:35:39;;;;;;;2.17;1.60;;;26.00;55.40;;;;;;5107478;28;20460;-50
2022/09/01 10:38:09;;;;;;;3.33;1.73;;;26.70;54.40;;;;;;5102031;28;20477;-52
2022/09/01 10:40:44;;;;;;;3.63;1.40;;;27.60;53.90;;;;;;5080081;28;20525;-54
2022/09/01 10:43:40;;;;;;;1.60;1.40;;;28.20;52.10;;;;;;5093328;28;20480;-52
2022/09/01 10:46:43;;;;;;;1.90;1.30;;;28.80;50.20;;;;;;5037606;28;20940;-55
2022/09/01 10:49:20;;;;;;;2.27;1.40;;;29.30;49.30;;;;;;5079140;28;20865;-51
2022/09/01 10:51:47;;;;;;;1.80;1.37;;;29.30;48.90;;;;;;5078012;28;20524;-54
2022/09/01 10:54:56;;;;;;;1.77;1.33;;;28.80;48.50;;;;;;5081856;28;20461;-55
2022/09/01 10:57:38;;;;;;;4.27;1.83;;;28.00;49.90;;;;;;5093596;28;20529;-54
2022/09/01 11:00:43;;;;;;;2.37;1.43;;;27.00;51.40;;;;;;5095581;28;20530;-53
2022/09/01 11:03:33;;;;;;;1.87;1.27;;;26.40;52.30;;;;;;5108160;28;20445;-48
2022/09/01 11:06:01;;;;;;;2.33;1.70;;;26.10;53.50;;;;;;5096606;28;20481;-50
2022/09/01 11:08:42;;;;;;;1.30;1.13;;;26.10;54.30;;;;;;5098079;28;20442;-47
2022/09/01 11:11:21;;;;;;;1.67;1.27;;;26.20;54.20;;;;;;5083840;28;20481;-54
2022/09/01 11:13:51;;;;;;;2.13;1.80;;;26.40;53.70;;;;;;5089795;28;20513;-51
2022/09/01 11:16:37;;;;;;;2.70;1.60;;;26.70;53.90;;;;;;5092224;28;20466;-50
2022/09/01 11:19:31;;;;;;;3.47;1.63;;;26.90;54.20;;;;;;5086006;28;20489;-52
2022/09/01 11:22:09;;;;;;;2.33;1.60;;;27.10;53.10;;;;;;5083669;28;20471;-52
2022/09/01 11:24:51;;;;;;;1.73;1.43;;;26.90;52.50;;;;;;5087868;28;20419;-51
2022/09/01 11:27:51;;;;;;;2.00;1.50;;;26.50;53.10;;;;;;5105484;28;20446;-38
2022/09/01 11:30:21;;;;;;;3.40;2.17;;;26.10;53.20;;;;;;5103988;28;20949;-41
2022/09/01 11:32:52;;;;;;;3.10;1.30;;;25.80;53.30;;;;;;5106900;28;20468;-49
2022/09/01 11:35:22;;;;;;;2.67;1.40;;;25.50;53.80;;;;;;5086256;28;20450;-51
2022/09/01 11:37:50;;;;;;;2.13;1.60;;;25.20;54.50;;;;;;5078680;28;20999;-51
2022/09/01 11:40:25;;;;;;;2.57;1.17;;;24.80;55.70;;;;;;5078870;28;20464;-53
2022/09/01 11:42:54;;;;;;;1.90;1.60;;;24.50;55.40;;;;;;5082586;28;20859;-53
2022/09/01 11:45:32;;;;;;;2.20;1.60;;;24.30;55.50;;;;;;5090606;28;20529;-33
2022/09/01 11:48:05;;;;;;;2.97;1.47;;;24.10;55.90;;;;;;5087620;28;20441;-38
2022/09/01 11:50:34;;;;;;;1.20;1.07;;;24.00;55.30;;;;;;5086433;28;20557;-33
2022/09/01 11:53:04;;;;;;;2.00;1.40;;;23.90;56.30;;;;;;5084365;28;20482;-46
2022/09/01 11:55:33;;;;;;;1.20;0.90;;;24.00;56.30;;;;;;5088939;28;20474;-34
2022/09/01 11:58:01;;;;;;;2.20;0.90;;;23.90;56.20;;;;;;5083010;28;20569;-51
2022/09/01 12:00:31;;;;;;;3.80;1.47;;;23.80;55.80;;;;;;5082692;28;20447;-48
2022/09/01 12:02:59;;;;;;;3.10;1.57;;;23.70;56.40;;;;;;5095462;28;20475;-50
2022/09/01 12:05:30;;;;;;;2.67;2.17;;;23.50;56.70;;;;;;5110537;28;20433;-53
2022/09/01 12:07:57;;;;;;;3.33;1.40;;;23.30;56.40;;;;;;5115275;28;20451;-53
2022/09/01 12:10:31;;;;;;;1.57;1.30;;;23.30;56.50;;;;;;5124814;28;20444;-53
2022/09/01 12:13:03;;;;;;;1.40;1.03;;;23.30;57.20;;;;;;5120547;28;20459;-54
2022/09/01 12:15:35;;;;;;;5.03;2.10;;;23.20;57.20;;;;;;5105890;28;20553;-52
2022/09/01 12:18:17;;;;;;;3.57;1.90;;;23.20;57.10;;;;;;5102578;28;20492;-53
2022/09/01 12:20:45;;;;;;;2.47;1.53;;;23.20;57.50;;;;;;5081590;28;20441;-50
2022/09/01 12:23:24;;;;;;;3.00;2.27;;;23.20;56.90;;;;;;5100480;28;20453;-37
2022/09/01 12:26:02;;;;;;;2.37;1.47;;;23.30;56.70;;;;;;5106098;28;20491;-35
2022/09/01 12:28:31;;;;;;;3.40;1.90;;;23.50;56.90;;;;;;5106351;28;20521;-36
2022/09/01 12:31:03;;;;;;;3.13;1.40;;;23.50;56.20;;;;;;5110898;28;20488;-34
2022/09/01 12:33:31;;;;;;;1.73;1.23;;;23.50;56.80;;;;;;5104021;28;20526;-52
2022/09/01 12:36:25;;;;;;;3.70;1.30;;;23.50;57.20;;;;;;5107221;28;20442;-52
2022/09/01 12:38:54;;;;;;;2.80;1.30;;;23.30;57.80;;;;;;5107240;28;20496;-52
2022/09/01 12:41:34;;;;;;;2.70;1.80;;;23.30;58.60;;;;;;5098425;28;20770;-54
2022/09/01 12:44:29;;;;;;;2.17;1.50;;;23.20;58.40;;;;;;5099766;28;20807;-53
2022/09/01 12:47:00;;;;;;;1.70;1.20;;;23.00;57.90;;;;;;5097873;28;20442;-54
2022/09/01 12:49:36;;;;;;;2.13;1.17;;;22.90;59.20;;;;;;5103442;28;20502;-59
2022/09/01 12:52:12;;;;;;;4.63;2.40;;;22.80;59.70;;;;;;5105937;28;20413;-51
2022/09/01 12:54:39;;;;;;;2.53;1.23;;;22.80;60.00;;;;;;5105491;28;20432;-53
2022/09/01 12:57:06;;;;;;;2.30;1.33;;;22.70;60.20;;;;;;5119775;28;20442;-52
2022/09/01 12:59:33;;;;;;;4.10;1.53;;;22.80;61.70;;;;;;5117922;28;20491;-53
2022/09/01 13:02:33;;;;;;;2.33;1.73;;;22.80;62.30;;;;;;5097795;28;20529;-53
2022/09/01 13:05:18;;;;;;;3.20;2.07;;;22.90;61.80;;;;;;5098718;28;20465;-54
2022/09/01 13:07:45;;;;;;;2.80;1.53;;;23.00;61.20;;;;;;5087768;28;20542;-55
2022/09/01 13:10:12;;;;;;;1.90;1.40;;;23.00;60.80;;;;;;5113718;28;20467;-58
2022/09/01 13:12:41;;;;;;;1.77;1.13;;;23.00;60.40;;;;;;5099170;28;20455;-37